createdAt,value
2023-03-27T00:02:05.033Z,2.85
2023-03-27T00:04:31.758Z,3.80
2023-03-27T00:06:59.432Z,0.90
2023-03-27T00:09:28.476Z,5.53
2023-03-27T00:11:56.378Z,2.53
2023-03-27T00:14:23.927Z,1.55
2023-03-27T00:16:51.154Z,2.15
2023-03-27T00:19:18.959Z,2.95
2023-03-27T00:21:45.692Z,1.27
2023-03-27T00:24:12.622Z,2.00
2023-03-27T00:26:40.460Z,3.20
2023-03-27T00:29:08.037Z,2.55
2023-03-27T00:31:34.895Z,4.97
2023-03-27T00:34:02.395Z,2.75
2023-03-27T00:36:29.042Z,3.17
2023-03-27T00:38:55.717Z,0.98
2023-03-27T00:41:23.306Z,2.30
2023-03-27T00:43:53.267Z,2.97
2023-03-27T00:46:34.804Z,1.95
2023-03-27T00:49:05.766Z,1.88
2023-03-27T00:51:34.733Z,2.72
2023-03-27T00:54:01.805Z,1.20
2023-03-27T00:56:28.548Z,4.57
2023-03-27T00:59:00.143Z,7.25
2023-03-27T01:01:29.753Z,1.30
2023-03-27T01:04:00.541Z,6.57
2023-03-27T01:06:28.439Z,4.82
2023-03-27T01:08:55.142Z,1.65
2023-03-27T01:11:53.025Z,2.85
2023-03-27T01:14:35.362Z,3.63
2023-03-27T01:17:52.039Z,3.28
2023-03-27T01:20:41.048Z,5.22
2023-03-27T01:23:16.602Z,2.58
2023-03-27T01:26:36.148Z,3.33
2023-03-27T01:29:28.925Z,3.08
2023-03-27T01:32:01.907Z,2.25
2023-03-27T01:35:01.537Z,6.03
2023-03-27T01:37:57.534Z,2.65
2023-03-27T01:40:53.723Z,3.30
2023-03-27T01:43:26.620Z,1.35
2023-03-27T01:46:07.085Z,0.98
2023-03-27T01:48:56.049Z,1.80
2023-03-27T01:51:25.381Z,4.32
2023-03-27T01:54:00.840Z,1.73
2023-03-27T01:56:32.226Z,1.50
2023-03-27T01:59:03.982Z,6.72
2023-03-27T02:01:54.171Z,3.42
2023-03-27T02:04:23.791Z,1.30
2023-03-27T02:07:00.528Z,2.38
2023-03-27T02:09:33.682Z,1.95
2023-03-27T02:12:13.252Z,2.85
2023-03-27T02:14:42.566Z,5.47
2023-03-27T02:17:12.849Z,1.98
2023-03-27T02:19:47.438Z,1.30
2023-03-27T02:22:14.986Z,2.63
2023-03-27T02:24:43.264Z,2.00
2023-03-27T02:27:24.809Z,3.38
2023-03-27T02:29:57.898Z,1.60
2023-03-27T02:32:37.985Z,1.80
2023-03-27T02:35:23.391Z,2.28
2023-03-27T02:37:56.592Z,4.03
2023-03-27T02:40:55.621Z,1.85
2023-03-27T02:43:34.405Z,2.45
2023-03-27T02:46:21.298Z,2.40
2023-03-27T02:48:54.789Z,2.70
2023-03-27T02:51:27.072Z,3.22
2023-03-27T02:54:06.498Z,1.55
2023-03-27T02:56:38.570Z,2.70
2023-03-27T02:59:13.143Z,4.15
2023-03-27T03:01:41.008Z,1.50
2023-03-27T03:04:25.805Z,2.17
2023-03-27T03:06:54.059Z,3.13
2023-03-27T03:09:20.761Z,2.53
2023-03-27T03:11:50.402Z,3.20
2023-03-27T03:14:19.495Z,1.70
2023-03-27T03:16:46.601Z,1.67
2023-03-27T03:19:13.662Z,3.42
2023-03-27T03:21:40.928Z,1.73
2023-03-27T03:24:08.004Z,2.42
2023-03-27T03:26:35.574Z,2.13
2023-03-27T03:29:02.595Z,3.40
2023-03-27T03:31:43.133Z,3.67
2023-03-27T03:34:16.140Z,2.30
2023-03-27T03:36:44.705Z,1.55
2023-03-27T03:39:13.384Z,3.97
2023-03-27T03:41:40.422Z,3.08
2023-03-27T03:44:07.521Z,2.75
2023-03-27T03:46:34.215Z,2.55
2023-03-27T03:49:01.244Z,3.85
2023-03-27T03:51:28.374Z,5.63
2023-03-27T03:53:54.971Z,3.92
2023-03-27T03:56:21.645Z,3.97
2023-03-27T03:58:48.229Z,4.35
2023-03-27T04:01:14.893Z,4.68
2023-03-27T04:03:42.173Z,5.75
2023-03-27T04:06:10.832Z,5.72
2023-03-27T04:08:37.770Z,5.20
2023-03-27T04:11:05.299Z,3.42
2023-03-27T04:13:32.100Z,4.32
2023-03-27T04:16:01.725Z,4.75
2023-03-27T04:18:33.105Z,6.38
2023-03-27T04:21:00.110Z,5.00
2023-03-27T04:23:33.769Z,4.65
2023-03-27T04:26:01.980Z,5.50
2023-03-27T04:28:34.343Z,4.95
2023-03-27T04:31:06.488Z,6.18
2023-03-27T04:33:39.272Z,6.03
2023-03-27T04:36:14.365Z,6.60
2023-03-27T04:38:41.010Z,8.20
2023-03-27T04:41:07.749Z,5.00
2023-03-27T04:43:36.736Z,4.40
2023-03-27T04:46:05.858Z,7.22
2023-03-27T04:48:32.857Z,4.53
2023-03-27T04:50:59.565Z,4.10
2023-03-27T04:53:30.090Z,5.97
2023-03-27T04:55:57.175Z,4.32
2023-03-27T04:58:26.048Z,4.78
2023-03-27T05:00:56.307Z,3.28
2023-03-27T05:03:23.992Z,3.25
2023-03-27T05:05:50.992Z,3.25
2023-03-27T05:08:18.483Z,3.30
2023-03-27T05:10:45.812Z,4.43
2023-03-27T05:13:12.655Z,2.50
2023-03-27T05:15:39.530Z,3.85
2023-03-27T05:18:07.187Z,3.72
2023-03-27T05:20:35.421Z,2.50
2023-03-27T05:23:02.345Z,5.47
2023-03-27T05:25:30.793Z,2.50
2023-03-27T05:27:58.377Z,4.03
2023-03-27T05:30:26.807Z,3.72
2023-03-27T05:32:54.192Z,5.43
2023-03-27T05:35:23.390Z,3.80
2023-03-27T05:37:51.962Z,4.80
2023-03-27T05:40:22.987Z,4.70
2023-03-27T05:42:51.097Z,4.32
2023-03-27T05:45:18.712Z,5.13
2023-03-27T05:47:49.028Z,5.72
2023-03-27T05:50:16.806Z,6.35
2023-03-27T05:52:44.047Z,5.90
2023-03-27T05:55:11.589Z,5.10
2023-03-27T05:57:39.395Z,9.85
2023-03-27T06:00:13.960Z,3.78
2023-03-27T06:02:43.371Z,8.43
2023-03-27T06:05:13.364Z,4.63
2023-03-27T06:07:42.931Z,6.85
2023-03-27T06:10:13.683Z,9.23
2023-03-27T06:12:42.681Z,5.63
2023-03-27T06:15:10.993Z,4.38
2023-03-27T06:17:42.133Z,8.20
2023-03-27T06:20:15.078Z,9.77
2023-03-27T06:22:44.781Z,6.38
2023-03-27T06:25:11.448Z,7.32
2023-03-27T06:27:38.101Z,7.60
2023-03-27T06:30:05.664Z,4.78
2023-03-27T06:32:32.584Z,5.55
2023-03-27T06:34:59.546Z,7.03
2023-03-27T06:37:26.170Z,7.10
2023-03-27T06:39:54.775Z,8.30
2023-03-27T06:42:21.439Z,6.10
2023-03-27T06:44:48.045Z,7.03
2023-03-27T06:47:15.021Z,3.88
2023-03-27T06:49:43.654Z,4.28
2023-03-27T06:52:10.762Z,5.57
2023-03-27T06:54:37.360Z,4.88
2023-03-27T06:57:04.404Z,3.75
2023-03-27T06:59:31.194Z,3.78
2023-03-27T07:01:57.877Z,2.25
2023-03-27T07:04:25.065Z,6.13
2023-03-27T07:06:51.755Z,4.55
2023-03-27T07:09:18.434Z,5.03
2023-03-27T07:11:45.073Z,3.58
2023-03-27T07:14:11.702Z,4.30
2023-03-27T07:16:38.328Z,3.33
2023-03-27T07:19:05.353Z,3.70
2023-03-27T07:21:32.200Z,3.95
2023-03-27T07:23:58.833Z,3.15
2023-03-27T07:26:25.514Z,3.75
2023-03-27T07:28:52.143Z,2.17
2023-03-27T07:33:48.565Z,3.08
2023-03-27T07:36:16.091Z,5.20
2023-03-27T07:38:42.790Z,2.80
2023-03-27T07:41:09.391Z,4.05
2023-03-27T07:43:36.578Z,2.67
2023-03-27T07:46:06.020Z,3.05
2023-03-27T07:48:33.025Z,4.72
2023-03-27T07:51:10.782Z,6.22
2023-03-27T07:53:41.318Z,5.80
2023-03-27T07:56:08.612Z,7.47
2023-03-27T07:58:35.433Z,14.13
2023-03-27T08:01:03.035Z,10.63
2023-03-27T08:03:30.853Z,12.55
2023-03-27T08:05:59.876Z,18.77
2023-03-27T08:08:27.145Z,16.60
2023-03-27T08:10:57.598Z,15.23
2023-03-27T08:13:24.445Z,15.32
2023-03-27T08:15:51.249Z,16.33
2023-03-27T08:18:17.941Z,22.20
2023-03-27T08:20:45.499Z,20.35
2023-03-27T08:23:12.291Z,22.80
2023-03-27T08:25:38.947Z,22.30
2023-03-27T08:28:08.189Z,22.73
2023-03-27T08:30:35.497Z,17.85
2023-03-27T08:33:02.231Z,17.00
2023-03-27T08:35:28.920Z,22.33
2023-03-27T08:37:55.533Z,19.67
2023-03-27T08:40:28.034Z,18.88
2023-03-27T08:43:00.538Z,15.95
2023-03-27T08:45:31.628Z,22.20
2023-03-27T08:48:08.070Z,26.17
2023-03-27T08:50:41.209Z,22.17
2023-03-27T08:53:23.688Z,23.20
2023-03-27T08:55:50.304Z,25.40
2023-03-27T08:58:20.000Z,23.45
2023-03-27T09:01:06.929Z,26.02
2023-03-27T09:04:05.043Z,24.65
2023-03-27T09:07:06.499Z,25.65
2023-03-27T09:09:46.656Z,28.92
2023-03-27T09:12:39.558Z,27.77
2023-03-27T09:15:17.821Z,24.73
2023-03-27T09:17:49.542Z,23.60
2023-03-27T09:20:34.254Z,28.75
2023-03-27T09:23:12.435Z,22.77
2023-03-27T09:25:46.911Z,24.83
2023-03-27T09:28:29.978Z,21.55
2023-03-27T09:30:57.362Z,26.75
2023-03-27T09:33:27.055Z,22.10
2023-03-27T09:35:54.329Z,26.15
2023-03-27T09:38:29.434Z,22.02
2023-03-27T09:41:04.402Z,22.92
2023-03-27T09:43:41.487Z,19.80
2023-03-27T09:46:12.422Z,25.17
2023-03-27T09:48:46.914Z,22.42
2023-03-27T09:51:43.348Z,22.83
2023-03-27T09:54:14.301Z,17.20
2023-03-27T09:56:51.853Z,22.38
2023-03-27T09:59:40.381Z,20.67
2023-03-27T10:02:21.612Z,21.17
2023-03-27T10:05:17.266Z,22.48
2023-03-27T10:07:44.493Z,20.10
2023-03-27T10:10:17.637Z,17.00
2023-03-27T10:12:52.993Z,15.13
2023-03-27T10:15:33.856Z,17.33
2023-03-27T10:18:04.498Z,13.57
2023-03-27T10:20:31.510Z,15.10
2023-03-27T10:23:08.180Z,18.52
2023-03-27T10:25:39.742Z,15.82
2023-03-27T10:28:19.481Z,18.02
2023-03-27T10:30:47.066Z,17.02
2023-03-27T10:33:14.071Z,14.40
2023-03-27T10:35:43.879Z,17.85
2023-03-27T10:38:16.893Z,18.55
2023-03-27T10:40:49.588Z,14.67
2023-03-27T10:43:40.216Z,14.27
2023-03-27T10:46:17.148Z,17.02
2023-03-27T10:48:55.949Z,11.55
2023-03-27T10:51:46.422Z,10.88
2023-03-27T10:54:26.709Z,11.52
2023-03-27T10:57:18.425Z,13.88
2023-03-27T10:59:56.353Z,12.80
2023-03-27T11:02:41.999Z,15.02
2023-03-27T11:05:14.040Z,14.77
2023-03-27T11:07:53.013Z,13.73
2023-03-27T11:10:34.653Z,11.75
2023-03-27T11:13:14.530Z,15.32
2023-03-27T11:15:50.799Z,19.35
2023-03-27T11:18:21.472Z,15.55
2023-03-27T11:21:15.956Z,8.23
2023-03-27T11:26:12.846Z,10.40
2023-03-27T11:28:43.432Z,14.30
2023-03-27T11:31:28.256Z,11.98
2023-03-27T11:34:00.582Z,13.32
2023-03-27T11:36:27.663Z,16.08
2023-03-27T11:39:15.903Z,14.65
2023-03-27T11:41:46.119Z,8.55
2023-03-27T11:44:13.147Z,11.18
2023-03-27T11:46:59.208Z,6.35
2023-03-27T11:49:29.287Z,8.35
2023-03-27T11:51:57.572Z,7.00
2023-03-27T11:54:43.336Z,9.05
2023-03-27T11:57:15.249Z,9.68
2023-03-27T12:00:04.902Z,12.27
2023-03-27T12:02:50.771Z,10.85
2023-03-27T12:05:29.098Z,10.88
2023-03-27T12:08:02.341Z,14.18
2023-03-27T12:10:32.098Z,8.13
2023-03-27T12:13:09.027Z,5.97
2023-03-27T12:15:55.012Z,7.03
2023-03-27T12:18:35.913Z,11.38
2023-03-27T12:21:04.603Z,7.68
2023-03-27T12:23:31.613Z,10.90
2023-03-27T12:26:04.752Z,5.95
2023-03-27T12:28:49.960Z,11.70
2023-03-27T12:31:19.761Z,6.05
2023-03-27T12:33:51.916Z,8.43
2023-03-27T12:36:22.297Z,7.70
2023-03-27T12:38:49.319Z,5.72
2023-03-27T12:41:23.872Z,5.40
2023-03-27T12:43:55.377Z,8.93
2023-03-27T12:46:26.443Z,12.93
2023-03-27T12:48:58.103Z,9.73
2023-03-27T12:51:43.964Z,5.35
2023-03-27T12:54:31.347Z,14.40
2023-03-27T12:57:21.200Z,8.50
2023-03-27T12:59:54.502Z,7.68
2023-03-27T13:03:02.806Z,5.75
2023-03-27T13:05:58.661Z,6.30
2023-03-27T13:08:44.972Z,10.98
2023-03-27T13:11:30.224Z,13.55
2023-03-27T13:14:08.576Z,9.68
2023-03-27T13:17:08.677Z,9.48
2023-03-27T13:19:58.300Z,7.05
2023-03-27T13:22:37.109Z,6.10
2023-03-27T13:25:22.811Z,15.05
2023-03-27T13:28:24.736Z,8.95
2023-03-27T13:30:55.712Z,13.18
2023-03-27T13:33:37.576Z,6.45
2023-03-27T13:36:22.602Z,5.97
2023-03-27T13:38:55.030Z,5.88
2023-03-27T13:41:40.720Z,3.88
2023-03-27T13:44:13.342Z,5.70
2023-03-27T13:46:46.510Z,3.85
2023-03-27T13:49:36.968Z,6.00
2023-03-27T13:52:37.353Z,4.93
2023-03-27T13:55:34.512Z,4.68
2023-03-27T13:58:04.542Z,5.35
2023-03-27T14:00:48.328Z,5.80
2023-03-27T14:03:36.769Z,4.15
2023-03-27T14:06:28.377Z,8.45
2023-03-27T14:09:13.712Z,3.47
2023-03-27T14:11:53.620Z,4.63
2023-03-27T14:14:58.448Z,9.15
2023-03-27T14:20:08.238Z,2.78
2023-03-27T14:22:43.691Z,4.47
2023-03-27T14:25:15.565Z,3.72
2023-03-27T14:27:45.381Z,8.32
2023-03-27T14:30:21.556Z,2.63
2023-03-27T14:32:49.886Z,5.35
2023-03-27T14:35:35.829Z,9.02
2023-03-27T14:38:05.769Z,7.93
2023-03-27T14:40:36.567Z,7.03
2023-03-27T14:43:06.113Z,4.50
2023-03-27T14:45:37.207Z,11.23
2023-03-27T14:48:26.537Z,9.13
2023-03-27T14:50:55.067Z,9.57
2023-03-27T14:53:26.187Z,7.65
2023-03-27T14:55:55.296Z,4.57
2023-03-27T14:58:24.056Z,2.97
2023-03-27T15:00:57.949Z,5.75
2023-03-27T15:03:27.262Z,9.20
2023-03-27T15:06:04.462Z,9.77
2023-03-27T15:08:39.318Z,2.33
2023-03-27T15:11:13.917Z,8.32
2023-03-27T15:13:40.952Z,5.43
2023-03-27T15:16:09.652Z,9.60
2023-03-27T15:18:49.237Z,7.05
2023-03-27T15:21:32.507Z,7.25
2023-03-27T15:24:13.419Z,4.93
2023-03-27T15:26:40.894Z,4.88
2023-03-27T15:29:17.899Z,3.78
2023-03-27T15:31:45.662Z,4.55
2023-03-27T15:34:23.989Z,5.30
2023-03-27T15:36:56.547Z,3.10
2023-03-27T15:39:23.886Z,4.25
2023-03-27T15:41:52.175Z,4.93
2023-03-27T15:44:22.022Z,7.13
2023-03-27T15:46:50.525Z,5.47
2023-03-27T15:49:25.680Z,7.50
2023-03-27T15:51:52.787Z,4.70
2023-03-27T15:54:31.231Z,5.68
2023-03-27T15:57:09.643Z,3.22
2023-03-27T15:59:51.818Z,5.00
2023-03-27T16:02:20.878Z,5.13
2023-03-27T16:04:54.389Z,4.15
2023-03-27T16:07:25.315Z,5.80
2023-03-27T16:09:57.000Z,9.57
2023-03-27T16:12:28.184Z,7.85
2023-03-27T16:15:01.478Z,9.13
2023-03-27T16:17:37.734Z,6.43
2023-03-27T16:20:11.421Z,9.45
2023-03-27T16:22:39.186Z,7.35
2023-03-27T16:25:09.406Z,7.35
2023-03-27T16:27:48.480Z,7.13
2023-03-27T16:30:29.556Z,7.60
2023-03-27T16:32:56.227Z,9.15
2023-03-27T16:35:23.251Z,10.85
2023-03-27T16:37:50.385Z,10.27
2023-03-27T16:40:17.721Z,6.25
2023-03-27T16:42:44.391Z,7.25
2023-03-27T16:45:11.497Z,8.38
2023-03-27T16:47:38.896Z,8.85
2023-03-27T16:52:36.502Z,12.93
2023-03-27T16:55:06.454Z,8.85
2023-03-27T16:57:34.853Z,7.80
2023-03-27T17:00:01.953Z,8.63
2023-03-27T17:02:30.691Z,4.75
2023-03-27T17:04:59.131Z,9.90
2023-03-27T17:07:27.415Z,6.85
2023-03-27T17:09:54.484Z,12.27
2023-03-27T17:12:21.669Z,9.32
2023-03-27T17:14:50.909Z,10.38
2023-03-27T17:17:17.941Z,8.75
2023-03-27T17:19:45.162Z,8.00
2023-03-27T17:22:13.392Z,11.20
2023-03-27T17:24:55.430Z,11.32
2023-03-27T17:27:24.035Z,12.35
2023-03-27T17:29:52.017Z,10.75
2023-03-27T17:32:19.040Z,8.90
2023-03-27T17:34:46.111Z,11.02
2023-03-27T17:37:13.147Z,10.55
2023-03-27T17:39:40.975Z,11.85
2023-03-27T17:42:08.138Z,11.57
2023-03-27T17:44:35.363Z,13.38
2023-03-27T17:47:02.435Z,7.15
2023-03-27T17:49:29.603Z,8.23
2023-03-27T17:51:56.791Z,5.35
2023-03-27T17:54:23.719Z,5.93
2023-03-27T17:56:50.459Z,11.07
2023-03-27T17:59:17.146Z,8.43
2023-03-27T18:01:45.699Z,5.47
2023-03-27T18:04:12.473Z,10.43
2023-03-27T18:06:39.101Z,8.65
2023-03-27T18:09:07.367Z,12.88
2023-03-27T18:11:34.073Z,9.18
2023-03-27T18:14:01.585Z,12.25
2023-03-27T18:16:30.768Z,12.52
2023-03-27T18:18:59.868Z,14.73
2023-03-27T18:21:27.827Z,12.63
2023-03-27T18:23:59.194Z,10.80
2023-03-27T18:26:28.519Z,11.70
2023-03-27T18:28:55.355Z,11.98
2023-03-27T18:31:22.058Z,13.85
2023-03-27T18:33:48.842Z,15.05
2023-03-27T18:36:15.928Z,13.70
2023-03-27T18:38:42.749Z,12.57
2023-03-27T18:41:10.466Z,13.98
2023-03-27T18:43:37.716Z,12.13
2023-03-27T18:46:06.074Z,10.93
2023-03-27T18:48:33.710Z,14.85
2023-03-27T18:51:02.924Z,14.02
2023-03-27T18:53:30.821Z,9.63
2023-03-27T18:55:58.611Z,12.27
2023-03-27T18:58:27.605Z,11.65
2023-03-27T19:00:57.374Z,13.38
2023-03-27T19:03:26.785Z,13.88
2023-03-27T19:05:53.778Z,11.00
2023-03-27T19:08:21.670Z,11.80
2023-03-27T19:10:48.733Z,9.85
2023-03-27T19:13:15.935Z,12.02
2023-03-27T19:15:42.862Z,7.82
2023-03-27T19:18:09.695Z,10.18
2023-03-27T19:20:36.628Z,11.25
2023-03-27T19:23:03.581Z,8.90
2023-03-27T19:25:33.389Z,11.05
2023-03-27T19:28:04.553Z,11.13
2023-03-27T19:30:32.360Z,8.13
2023-03-27T19:32:59.089Z,6.10
2023-03-27T19:35:26.444Z,6.60
2023-03-27T19:37:54.192Z,9.25
2023-03-27T19:40:25.462Z,8.90
2023-03-27T19:42:52.385Z,10.85
2023-03-27T19:45:19.119Z,8.15
2023-03-27T19:47:46.405Z,8.05
2023-03-27T19:50:14.529Z,6.82
2023-03-27T19:52:42.410Z,9.30
2023-03-27T19:55:09.299Z,7.57
2023-03-27T19:57:35.955Z,6.28
2023-03-27T20:00:06.318Z,13.23
2023-03-27T20:02:32.996Z,9.02
2023-03-27T20:05:00.916Z,9.65
2023-03-27T20:07:27.477Z,11.63
2023-03-27T20:09:54.096Z,9.45
2023-03-27T20:12:22.913Z,7.82
2023-03-27T20:15:02.952Z,9.75
2023-03-27T20:17:36.441Z,6.57
2023-03-27T20:20:05.463Z,7.55
2023-03-27T20:22:35.114Z,13.95
2023-03-27T20:25:07.681Z,9.32
2023-03-27T20:27:34.298Z,10.63
2023-03-27T20:30:01.926Z,12.27
2023-03-27T20:32:28.667Z,10.43
2023-03-27T20:34:55.366Z,11.30
2023-03-27T20:37:26.903Z,12.45
2023-03-27T20:39:54.224Z,9.93
2023-03-27T20:42:23.032Z,11.85
2023-03-27T20:44:58.420Z,13.88
2023-03-27T20:47:25.365Z,14.63
2023-03-27T20:49:52.182Z,13.40
2023-03-27T20:52:22.516Z,11.68
2023-03-27T20:54:49.286Z,14.80
2023-03-27T20:57:16.040Z,12.23
2023-03-27T20:59:42.730Z,13.43
2023-03-27T21:02:17.936Z,13.52
2023-03-27T21:04:46.519Z,11.27
2023-03-27T21:07:13.652Z,9.95
2023-03-27T21:09:40.349Z,13.55
2023-03-27T21:12:08.120Z,13.38
2023-03-27T21:14:35.482Z,15.52
2023-03-27T21:17:02.465Z,14.18
2023-03-27T21:19:29.080Z,13.68
2023-03-27T21:21:55.954Z,12.95
2023-03-27T21:24:22.590Z,11.93
2023-03-27T21:26:49.250Z,15.23
2023-03-27T21:29:16.067Z,13.75
2023-03-27T21:31:43.230Z,18.45
2023-03-27T21:34:10.753Z,16.30
2023-03-27T21:36:37.951Z,13.32
2023-03-27T21:39:05.437Z,15.40
2023-03-27T21:41:32.280Z,12.73
2023-03-27T21:43:58.871Z,14.93
2023-03-27T21:46:25.715Z,9.45
2023-03-27T21:48:52.737Z,12.98
2023-03-27T21:51:19.878Z,15.38
2023-03-27T21:53:46.736Z,12.10
2023-03-27T21:56:13.527Z,11.05
2023-03-27T21:58:40.382Z,11.15
2023-03-27T22:01:07.352Z,9.57
2023-03-27T22:03:34.056Z,12.52
2023-03-27T22:06:12.384Z,12.63
2023-03-27T22:08:42.312Z,10.60
2023-03-27T22:11:10.717Z,11.90
2023-03-27T22:13:38.501Z,12.57
2023-03-27T22:16:13.265Z,14.30
2023-03-27T22:18:40.387Z,18.45
2023-03-27T22:21:16.525Z,12.10
2023-03-27T22:23:43.951Z,12.48
2023-03-27T22:26:11.094Z,13.32
2023-03-27T22:28:37.716Z,10.38
2023-03-27T22:31:04.628Z,9.50
2023-03-27T22:33:31.930Z,9.68
2023-03-27T22:35:58.844Z,8.35
2023-03-27T22:38:28.482Z,8.82
2023-03-27T22:40:55.380Z,9.32
2023-03-27T22:43:22.640Z,8.15
2023-03-27T22:45:50.699Z,13.93
2023-03-27T22:48:17.448Z,12.15
2023-03-27T22:50:44.279Z,10.35
2023-03-27T22:53:10.946Z,13.85
2023-03-27T22:55:37.696Z,10.48
2023-03-27T22:58:04.314Z,10.07
2023-03-27T23:00:30.958Z,10.80
2023-03-27T23:02:57.665Z,11.73
2023-03-27T23:05:24.475Z,10.15
2023-03-27T23:07:51.128Z,11.15
2023-03-27T23:10:17.750Z,12.75
2023-03-27T23:12:44.774Z,10.90
2023-03-27T23:15:11.647Z,9.07
2023-03-27T23:17:38.318Z,9.80
2023-03-27T23:20:05.749Z,11.75
2023-03-27T23:22:32.436Z,10.57
2023-03-27T23:24:59.033Z,12.23
2023-03-27T23:27:26.151Z,14.48
2023-03-27T23:29:52.845Z,11.75
2023-03-27T23:32:19.553Z,13.45
2023-03-27T23:34:46.205Z,11.27
2023-03-27T23:37:13.066Z,11.50
2023-03-27T23:39:39.735Z,13.00
2023-03-27T23:42:06.430Z,13.95
2023-03-27T23:44:33.052Z,12.98
2023-03-27T23:46:59.676Z,9.73
2023-03-27T23:49:26.460Z,9.48
2023-03-27T23:51:54.464Z,14.57
2023-03-27T23:54:21.255Z,12.07
2023-03-27T23:56:47.985Z,11.70
2023-03-27T23:59:14.738Z,13.52
